Girouxville, Canada
Current Conditions -  °F | °C
As of 3:11 AM on Sunday 26 Oct 2014 (Local Time) from CYPE Reporting Station
Light Snow Light Snow  
Wind Chill: 24°   Ceiling: 2000
Heat Index: 34°   Visibility: 5mi
Dew Point: 32°   Wind: 15mph
Humidity: 93%   Direction: 50°NE
Pressure: 29.62"   Gusts: 21mph
Location:  55.75°N, 117.33°W
Report Text: CYPE 260911Z 05013G18KT 5SM -SN OVC020 01/M00 A2962 RMK SC8 SLP053
Loading
Personal Weather Stations






























Interactive Weather Map
Tropical Storm Tracking
New forecast layout! Learn more

10-Day Weather Forecast

Advertisements
Track Severe Weather on mobile